createdAt,value
2023-12-30T00:05:58.893Z,8.4
2023-12-30T00:15:58.945Z,8.4
2023-12-30T00:25:59.235Z,8.4
2023-12-30T00:35:59.078Z,8.4
2023-12-30T00:45:58.902Z,8.5
2023-12-30T00:55:59.027Z,8.6
2023-12-30T01:05:58.948Z,8.7
2023-12-30T01:15:58.907Z,8.7
2023-12-30T01:25:58.916Z,8.8
2023-12-30T01:35:58.928Z,8.8
2023-12-30T01:45:58.719Z,8.8
2023-12-30T01:55:58.756Z,8.9
2023-12-30T02:05:58.796Z,8.9
2023-12-30T02:15:58.715Z,8.9
2023-12-30T02:25:58.667Z,8.9
2023-12-30T02:35:58.647Z,8.8
2023-12-30T02:45:58.636Z,8.7
2023-12-30T02:55:58.407Z,8.6
2023-12-30T03:05:58.588Z,8.5
2023-12-30T03:15:58.497Z,8.5
2023-12-30T03:25:58.497Z,8.5
2023-12-30T03:35:58.326Z,8.6
2023-12-30T03:45:58.415Z,8.6
2023-12-30T04:05:58.365Z,8.5
2023-12-30T04:15:58.416Z,8.4
2023-12-30T04:25:58.343Z,8.3
2023-12-30T04:35:58.223Z,8.2
2023-12-30T04:45:58.257Z,8.2
2023-12-30T04:55:58.214Z,7.9
2023-12-30T05:05:57.823Z,7.8
2023-12-30T05:15:58.109Z,7.8
2023-12-30T05:25:57.963Z,7.8
2023-12-30T05:35:58.105Z,7.8
2023-12-30T05:45:57.999Z,7.7
2023-12-30T05:55:58.019Z,7.7
2023-12-30T06:05:57.951Z,7.7
2023-12-30T06:15:57.952Z,7.7
2023-12-30T06:25:57.548Z,7.7
2023-12-30T06:35:57.827Z,7.7
2023-12-30T06:45:57.783Z,7.7
2023-12-30T06:55:57.788Z,7.8
2023-12-30T07:05:57.749Z,7.8
2023-12-30T07:15:57.753Z,7.8
2023-12-30T07:25:57.652Z,7.8
2023-12-30T07:35:57.669Z,7.9
2023-12-30T07:45:57.674Z,8
2023-12-30T07:55:57.536Z,7.9
2023-12-30T08:05:57.526Z,7.9
2023-12-30T08:15:57.540Z,7.9
2023-12-30T08:25:57.505Z,7.8
2023-12-30T08:35:57.396Z,7.9
2023-12-30T08:45:57.383Z,7.9
2023-12-30T08:55:57.045Z,7.9
2023-12-30T09:05:57.355Z,8
2023-12-30T09:15:56.982Z,8
2023-12-30T09:25:57.269Z,8.1
2023-12-30T09:35:57.277Z,8.1
2023-12-30T09:45:57.214Z,8.2
2023-12-30T09:55:57.206Z,8.3
2023-12-30T10:05:57.101Z,8.4
2023-12-30T10:15:56.767Z,8.4
2023-12-30T10:25:57.086Z,8.5
2023-12-30T10:35:56.965Z,8.6
2023-12-30T10:45:57.085Z,8.6
2023-12-30T10:55:56.782Z,8.7
2023-12-30T11:05:56.866Z,8.7
2023-12-30T11:15:56.562Z,8.8
2023-12-30T11:25:56.801Z,8.9
2023-12-30T11:35:56.870Z,9
2023-12-30T11:45:56.565Z,9
2023-12-30T11:55:56.775Z,9.1
2023-12-30T12:05:56.732Z,9.3
2023-12-30T12:15:56.743Z,9.5
2023-12-30T12:25:56.592Z,9.6
2023-12-30T12:35:56.626Z,9.7
2023-12-30T12:45:56.408Z,9.8
2023-12-30T12:55:56.214Z,9.8
2023-12-30T13:05:56.179Z,9.8
2023-12-30T13:15:56.135Z,9.9
2023-12-30T13:25:56.174Z,9.9
2023-12-30T13:35:56.407Z,9.9
2023-12-30T13:45:56.350Z,10
2023-12-30T13:55:56.284Z,10
2023-12-30T14:05:56.331Z,9.9
2023-12-30T14:15:56.220Z,9.9
2023-12-30T14:25:56.280Z,9.9
2023-12-30T14:35:56.171Z,9.9
2023-12-30T14:45:56.223Z,9.8
2023-12-30T14:55:55.825Z,9.7
2023-12-30T15:05:56.049Z,9.6
2023-12-30T15:15:56.028Z,9.5
2023-12-30T15:25:55.683Z,9.4
2023-12-30T15:35:55.914Z,9.3
2023-12-30T15:45:55.998Z,9.3
2023-12-30T15:55:55.850Z,9.3
2023-12-30T16:05:55.832Z,9.2
2023-12-30T16:15:55.857Z,9.1
2023-12-30T16:25:55.797Z,9
2023-12-30T16:35:55.425Z,8.8
2023-12-30T16:45:55.705Z,8.7
2023-12-30T16:55:55.699Z,8.6
2023-12-30T17:05:55.385Z,8.4
2023-12-30T17:15:55.300Z,8.4
2023-12-30T17:25:55.317Z,8.3
2023-12-30T17:35:55.237Z,8.2
2023-12-30T17:45:55.180Z,8.2
2023-12-30T17:55:55.255Z,8.2
2023-12-30T18:05:55.156Z,8.2
2023-12-30T18:15:55.122Z,8.2
2023-12-30T18:25:55.047Z,8.2
2023-12-30T18:35:55.024Z,8.1
2023-12-30T18:45:54.992Z,8.1
2023-12-30T18:55:54.960Z,8
2023-12-30T19:05:54.927Z,8
2023-12-30T19:15:54.942Z,7.9
2023-12-30T19:25:54.850Z,7.9
2023-12-30T19:35:54.816Z,7.8
2023-12-30T19:45:54.832Z,7.8
2023-12-30T19:55:54.748Z,7.8
2023-12-30T20:05:54.745Z,7.8
2023-12-30T20:15:54.771Z,7.8
2023-12-30T20:25:54.658Z,7.9
2023-12-30T20:35:54.615Z,7.9
2023-12-30T20:45:54.575Z,7.9
2023-12-30T20:55:54.549Z,8
2023-12-30T21:05:54.525Z,8.1
2023-12-30T21:15:54.472Z,8.1
2023-12-30T21:25:54.471Z,8.2
2023-12-30T21:35:54.405Z,8.2
2023-12-30T21:45:54.374Z,8.2
2023-12-30T21:55:54.331Z,8.2
2023-12-30T22:05:54.302Z,8.1
2023-12-30T22:15:54.254Z,8.1
2023-12-30T22:25:54.237Z,8.1
2023-12-30T22:35:54.193Z,8.1
2023-12-30T22:45:54.221Z,8.1
2023-12-30T22:55:54.156Z,8.1
2023-12-30T23:05:54.115Z,8.3
2023-12-30T23:15:54.071Z,8.3
2023-12-30T23:25:54.028Z,8.4
2023-12-30T23:35:53.988Z,8.3
2023-12-30T23:45:53.975Z,8.2
2023-12-30T23:55:53.937Z,8.2
